メインページ
METAR-TAF:

METAR-TAF

空港 :

Prince George, ブリティッシュコロンビア州, カナダ

緯度: 53-53N, 経度: 122-41W, 海抜: 691m

現時点の気象観測

当レポートは31分前の16:00(UTC)に作成
の風 6kt
気温 10°C
湿度 71%
気圧 1012 hPa
視程: 14.5km
高度6000ftの曇り

METAR: CYXS 111600Z AUTO 18006KT 9SM OVC060 10/05 A2987 RMK SLP131

時間: 09:31 (16:31 UTC)

予報

当レポートは3時間52分前の12:39(UTC)に作成
予報は11日の 13時(UTC)から 12日の 01時(UTC)まで有効
変向風 3kt
視程: 10km
高度8000ftの雲はほとんどない
11日の 2000時(UTC)から
西の風 8kt
視程: 10km
高度8000ftの千切れ雲あり
11日の 20時(UTC)から 12日の 01時(UTC)まで一時的に
視程: 10km
高度8000ftの千切れ雲あり, 積乱雲.
弱いにわか雨, 近辺で激しい雷雨

TAF: CYXS 111239Z 1113/1201 VRB03KT P6SM FEW080 FM112000 28008KT P6SM BKN080 TEMPO 1120/1201 P6SM -SHRA VCTS BKN080CB RMK FCST BASED ON AUTO OBS. NXT FCST BY 111900Z

4,000以上の空港の気象観測と天気予報(METAR報とTAF報)

利用可能な観測所は地図上に黄色い丸と赤い丸で示す。

丸の上にカーソルを重ねると観測所名を参照できる。

次にクリックすると気象観測と天気予報を参照できる。

マップの切り替え:黒色「×」印の緑ボタンをクリックして拡大、「-」印の緑ボタンをクリックして縮小、緑色の三角印をクリックして隣りの地図に切り替え


METAR-TAF: